createdAt,value
2022-10-26T00:01:59.033Z,3.43
2022-10-26T00:04:28.510Z,4.30
2022-10-26T00:06:57.953Z,2.73
2022-10-26T00:09:28.799Z,3.20
2022-10-26T00:11:58.162Z,3.40
2022-10-26T00:14:27.675Z,3.83
2022-10-26T00:16:56.986Z,5.10
2022-10-26T00:19:26.599Z,3.37
2022-10-26T00:21:55.881Z,2.83
2022-10-26T00:24:25.474Z,4.53
2022-10-26T00:26:56.443Z,3.83
2022-10-26T00:29:26.013Z,2.60
2022-10-26T00:31:55.667Z,2.80
2022-10-26T00:34:24.935Z,4.23
2022-10-26T00:36:54.320Z,5.23
2022-10-26T00:39:23.519Z,3.40
2022-10-26T00:41:52.700Z,2.73
2022-10-26T00:45:01.874Z,4.23
2022-10-26T00:47:39.930Z,4.57
2022-10-26T00:50:12.303Z,2.37
2022-10-26T00:52:42.036Z,6.00
2022-10-26T00:55:11.743Z,2.13
2022-10-26T00:57:41.420Z,2.30
2022-10-26T01:00:13.954Z,3.60
2022-10-26T01:02:43.976Z,3.17
2022-10-26T01:05:13.647Z,2.47
2022-10-26T01:07:44.026Z,2.77
2022-10-26T01:10:14.169Z,4.50
2022-10-26T01:12:43.683Z,4.77
2022-10-26T01:15:14.921Z,4.40
2022-10-26T01:17:55.232Z,2.87
2022-10-26T01:21:09.249Z,3.93
2022-10-26T01:23:47.438Z,2.67
2022-10-26T01:26:30.069Z,4.80
2022-10-26T01:29:18.231Z,2.67
2022-10-26T01:31:54.494Z,2.33
2022-10-26T01:34:28.448Z,4.27
2022-10-26T01:36:59.555Z,6.20
2022-10-26T01:39:33.666Z,4.07
2022-10-26T01:42:03.808Z,4.80
2022-10-26T01:44:37.015Z,3.60
2022-10-26T01:47:08.664Z,2.23
2022-10-26T01:49:41.965Z,2.80
2022-10-26T01:52:12.002Z,6.50
2022-10-26T01:54:41.268Z,3.77
2022-10-26T01:57:12.487Z,2.40
2022-10-26T02:00:03.925Z,7.13
2022-10-26T02:03:04.531Z,3.73
2022-10-26T02:06:01.390Z,2.50
2022-10-26T02:08:46.373Z,5.83
2022-10-26T02:11:25.058Z,6.80
2022-10-26T02:13:57.130Z,4.07
2022-10-26T02:16:28.313Z,2.80
2022-10-26T02:19:03.747Z,2.87
2022-10-26T02:21:37.791Z,2.80
2022-10-26T02:24:10.039Z,6.20
2022-10-26T02:26:41.070Z,5.03
2022-10-26T02:29:13.210Z,2.53
2022-10-26T02:31:42.997Z,2.47
2022-10-26T02:34:15.714Z,2.40
2022-10-26T02:36:47.033Z,3.57
2022-10-26T02:39:17.935Z,3.00
2022-10-26T02:41:50.638Z,2.53
2022-10-26T02:44:24.650Z,4.07
2022-10-26T02:46:54.774Z,5.53
2022-10-26T02:49:27.077Z,4.30
2022-10-26T02:52:02.864Z,3.03
2022-10-26T02:54:36.505Z,3.77
2022-10-26T02:57:10.323Z,2.87
2022-10-26T02:59:42.309Z,2.70
2022-10-26T03:02:12.412Z,2.57
2022-10-26T03:04:43.306Z,3.93
2022-10-26T03:07:12.697Z,4.03
2022-10-26T03:09:42.077Z,3.63
2022-10-26T03:12:11.366Z,2.43
2022-10-26T03:14:41.570Z,2.80
2022-10-26T03:17:11.034Z,3.67
2022-10-26T03:19:40.440Z,2.47
2022-10-26T03:22:11.230Z,4.30
2022-10-26T03:24:40.746Z,3.23
2022-10-26T03:27:09.940Z,3.67
2022-10-26T03:29:39.212Z,2.60
2022-10-26T03:32:08.525Z,2.97
2022-10-26T03:34:37.733Z,3.63
2022-10-26T03:37:07.120Z,3.17
2022-10-26T03:39:37.950Z,5.67
2022-10-26T03:42:07.649Z,3.60
2022-10-26T03:44:37.151Z,3.13
2022-10-26T03:47:06.463Z,2.60
2022-10-26T03:49:36.025Z,5.90
2022-10-26T03:52:06.263Z,2.80
2022-10-26T03:54:36.657Z,4.77
2022-10-26T03:57:06.264Z,4.53
2022-10-26T03:59:35.567Z,3.53
2022-10-26T04:02:04.901Z,3.67
2022-10-26T04:04:34.385Z,2.97
2022-10-26T04:07:03.696Z,3.80
2022-10-26T04:09:32.934Z,4.53
2022-10-26T04:12:03.801Z,3.73
2022-10-26T04:14:33.044Z,3.63
2022-10-26T04:17:02.481Z,3.87
2022-10-26T04:19:31.762Z,3.07
2022-10-26T04:22:00.996Z,3.93
2022-10-26T04:24:30.336Z,4.30
2022-10-26T04:27:02.093Z,5.93
2022-10-26T04:29:31.410Z,7.67
2022-10-26T04:32:00.769Z,6.63
2022-10-26T04:34:30.546Z,4.70
2022-10-26T04:37:00.820Z,2.90
2022-10-26T04:39:30.343Z,4.20
2022-10-26T04:41:59.699Z,4.17
2022-10-26T04:44:34.247Z,3.50
2022-10-26T04:47:03.463Z,4.67
2022-10-26T04:49:32.829Z,3.77
2022-10-26T04:52:02.206Z,4.50
2022-10-26T04:54:31.812Z,6.03
2022-10-26T04:57:01.529Z,3.67
2022-10-26T04:59:31.112Z,4.40
2022-10-26T05:02:01.970Z,4.33
2022-10-26T05:04:31.716Z,6.20
2022-10-26T05:07:01.010Z,5.93
2022-10-26T05:09:30.258Z,3.47
2022-10-26T05:11:59.569Z,8.23
2022-10-26T05:14:29.204Z,3.47
2022-10-26T05:16:58.409Z,4.10
2022-10-26T05:19:29.466Z,5.47
2022-10-26T05:22:00.149Z,4.20
2022-10-26T05:24:29.485Z,5.00
2022-10-26T05:26:58.798Z,5.70
2022-10-26T05:29:28.124Z,6.90
2022-10-26T05:31:57.621Z,5.30
2022-10-26T05:34:28.828Z,5.93
2022-10-26T05:36:58.559Z,4.70
2022-10-26T05:39:28.570Z,4.30
2022-10-26T05:42:00.082Z,5.37
2022-10-26T05:44:29.647Z,4.53
2022-10-26T05:47:00.199Z,7.27
2022-10-26T05:49:30.945Z,4.87
2022-10-26T05:52:00.161Z,4.07
2022-10-26T05:54:30.221Z,4.00
2022-10-26T05:57:00.337Z,4.50
2022-10-26T05:59:30.248Z,3.47
2022-10-26T06:02:07.047Z,5.70
2022-10-26T06:04:43.471Z,3.67
2022-10-26T06:07:14.838Z,5.20
2022-10-26T06:09:45.301Z,4.63
2022-10-26T06:12:19.331Z,6.07
2022-10-26T06:14:49.969Z,5.03
2022-10-26T06:17:40.457Z,5.53
2022-10-26T06:20:36.106Z,10.60
2022-10-26T06:23:18.003Z,5.93
2022-10-26T06:25:58.484Z,5.00
2022-10-26T06:28:39.454Z,7.23
2022-10-26T06:31:09.614Z,5.47
2022-10-26T06:33:38.992Z,4.67
2022-10-26T06:36:17.685Z,6.90
2022-10-26T06:38:47.622Z,5.53
2022-10-26T06:41:19.102Z,7.57
2022-10-26T06:43:49.919Z,4.67
2022-10-26T06:46:31.685Z,5.77
2022-10-26T06:49:08.804Z,7.37
2022-10-26T06:51:44.688Z,8.33
2022-10-26T06:54:18.094Z,8.00
2022-10-26T06:56:48.033Z,6.20
2022-10-26T06:59:21.675Z,6.23
2022-10-26T07:01:51.671Z,5.97
2022-10-26T07:04:21.301Z,5.53
2022-10-26T07:06:52.033Z,6.50
2022-10-26T07:09:21.330Z,7.73
2022-10-26T07:11:50.627Z,8.50
2022-10-26T07:14:20.355Z,7.77
2022-10-26T07:16:49.997Z,6.07
2022-10-26T07:19:19.690Z,8.20
2022-10-26T07:21:50.696Z,6.50
2022-10-26T07:24:19.996Z,7.63
2022-10-26T07:26:49.270Z,7.83
2022-10-26T07:29:19.253Z,4.80
2022-10-26T07:31:48.687Z,5.30
2022-10-26T07:34:18.121Z,5.07
2022-10-26T07:36:47.452Z,5.13
2022-10-26T07:39:18.321Z,5.30
2022-10-26T07:41:48.340Z,4.93
2022-10-26T07:44:17.917Z,4.87
2022-10-26T07:46:47.675Z,5.20
2022-10-26T07:49:19.328Z,4.60
2022-10-26T07:51:49.193Z,5.80
2022-10-26T07:54:19.965Z,6.37
2022-10-26T07:56:51.299Z,5.97
2022-10-26T07:59:22.145Z,6.27
2022-10-26T08:01:51.569Z,4.80
2022-10-26T08:04:20.861Z,4.97
2022-10-26T08:06:50.207Z,6.33
2022-10-26T08:09:21.597Z,6.20
2022-10-26T08:11:51.011Z,5.90
2022-10-26T08:14:20.391Z,6.93
2022-10-26T08:16:52.654Z,6.53
2022-10-26T08:19:22.354Z,6.20
2022-10-26T08:21:51.724Z,5.50
2022-10-26T08:24:24.986Z,7.47
2022-10-26T08:26:54.551Z,8.20
2022-10-26T08:29:23.960Z,7.97
2022-10-26T08:31:53.411Z,8.00
2022-10-26T08:34:22.864Z,11.70
2022-10-26T08:36:52.188Z,8.00
2022-10-26T08:39:23.785Z,6.90
2022-10-26T08:41:58.154Z,6.43
2022-10-26T08:44:31.042Z,7.80
2022-10-26T08:47:05.318Z,7.13
2022-10-26T08:49:40.970Z,8.17
2022-10-26T08:52:14.956Z,9.53
2022-10-26T08:54:49.936Z,8.63
2022-10-26T08:57:23.988Z,11.57
2022-10-26T08:59:58.096Z,8.93
2022-10-26T09:02:27.456Z,10.93
2022-10-26T09:04:59.188Z,8.73
2022-10-26T09:07:41.979Z,8.83
2022-10-26T09:13:07.759Z,7.47
2022-10-26T09:15:47.475Z,8.23
2022-10-26T09:18:24.896Z,7.07
2022-10-26T09:21:03.710Z,7.77
2022-10-26T09:23:49.268Z,7.90
2022-10-26T09:26:29.157Z,7.50
2022-10-26T09:29:00.395Z,10.57
2022-10-26T09:31:43.134Z,12.07
2022-10-26T09:34:23.671Z,7.20
2022-10-26T09:36:56.428Z,7.70
2022-10-26T09:39:35.513Z,13.03
2022-10-26T09:42:14.083Z,7.77
2022-10-26T09:44:46.959Z,8.90
2022-10-26T09:47:22.134Z,8.87
2022-10-26T09:49:53.779Z,7.53
2022-10-26T09:52:23.337Z,12.33
2022-10-26T09:54:52.926Z,7.37
2022-10-26T09:57:24.162Z,7.13
2022-10-26T09:59:55.907Z,17.50
2022-10-26T10:02:35.964Z,7.40
2022-10-26T10:05:32.623Z,7.83
2022-10-26T10:08:19.785Z,8.43
2022-10-26T10:11:00.905Z,8.80
2022-10-26T10:13:33.616Z,7.93
2022-10-26T10:16:06.983Z,8.87
2022-10-26T10:18:38.662Z,7.40
2022-10-26T10:21:08.991Z,7.50
2022-10-26T10:23:39.635Z,8.87
2022-10-26T10:26:13.055Z,7.60
2022-10-26T10:28:44.766Z,7.27
2022-10-26T10:31:24.725Z,8.03
2022-10-26T10:33:54.452Z,8.37
2022-10-26T10:36:26.048Z,7.40
2022-10-26T10:38:55.983Z,6.73
2022-10-26T10:41:28.366Z,6.93
2022-10-26T10:44:04.987Z,7.50
2022-10-26T10:46:34.839Z,6.10
2022-10-26T10:49:05.946Z,6.03
2022-10-26T10:51:40.012Z,6.20
2022-10-26T10:54:22.543Z,5.80
2022-10-26T10:56:54.214Z,8.80
2022-10-26T10:59:58.113Z,5.90
2022-10-26T11:03:16.702Z,5.10
2022-10-26T11:06:00.529Z,9.63
2022-10-26T11:08:33.740Z,5.70
2022-10-26T11:11:04.971Z,7.43
2022-10-26T11:13:38.842Z,6.00
2022-10-26T11:16:20.476Z,5.43
2022-10-26T11:18:54.010Z,5.77
2022-10-26T11:21:29.770Z,4.93
2022-10-26T11:24:11.186Z,5.83
2022-10-26T11:26:46.163Z,7.07
2022-10-26T11:29:33.829Z,5.90
2022-10-26T11:32:12.746Z,4.90
2022-10-26T11:34:47.629Z,4.20
2022-10-26T11:37:24.085Z,4.60
2022-10-26T11:40:04.146Z,5.20
2022-10-26T11:42:39.003Z,7.67
2022-10-26T11:45:13.615Z,4.43
2022-10-26T11:47:48.635Z,5.80
2022-10-26T11:50:22.239Z,5.00
2022-10-26T11:52:55.607Z,4.57
2022-10-26T11:55:25.395Z,4.27
2022-10-26T11:57:56.291Z,4.60
2022-10-26T12:00:25.849Z,6.77
2022-10-26T12:03:02.787Z,4.17
2022-10-26T12:05:43.703Z,7.23
2022-10-26T12:08:17.075Z,5.20
2022-10-26T12:10:51.213Z,8.30
2022-10-26T12:13:27.484Z,4.50
2022-10-26T12:16:04.423Z,4.40
2022-10-26T12:18:57.244Z,5.47
2022-10-26T12:21:29.660Z,4.13
2022-10-26T12:24:00.628Z,5.43
2022-10-26T12:26:55.151Z,5.23
2022-10-26T12:29:49.440Z,5.00
2022-10-26T12:32:53.181Z,3.80
2022-10-26T12:35:45.950Z,4.57
2022-10-26T12:38:54.392Z,4.50
2022-10-26T12:41:25.908Z,6.63
2022-10-26T12:44:09.064Z,5.43
2022-10-26T12:46:52.763Z,5.30
2022-10-26T12:49:58.505Z,5.53
2022-10-26T12:53:06.234Z,6.23
2022-10-26T12:55:57.497Z,5.50
2022-10-26T12:59:03.707Z,5.13
2022-10-26T13:02:09.358Z,5.73
2022-10-26T13:05:09.365Z,5.60
2022-10-26T13:07:39.641Z,7.33
2022-10-26T13:10:25.417Z,8.33
2022-10-26T13:12:56.536Z,6.57
2022-10-26T13:15:28.627Z,7.70
2022-10-26T13:18:01.663Z,6.37
2022-10-26T13:20:32.660Z,4.77
2022-10-26T13:25:37.757Z,4.63
2022-10-26T13:28:10.139Z,6.60
2022-10-26T13:30:47.467Z,6.73
2022-10-26T13:33:34.104Z,4.73
2022-10-26T13:36:08.188Z,4.13
2022-10-26T13:38:38.995Z,5.13
2022-10-26T13:41:22.994Z,4.20
2022-10-26T13:43:53.916Z,4.80
2022-10-26T13:46:28.057Z,4.30
2022-10-26T13:49:02.658Z,5.80
2022-10-26T13:51:40.640Z,5.13
2022-10-26T13:54:17.844Z,4.67
2022-10-26T13:57:00.799Z,14.30
2022-10-26T13:59:31.630Z,5.63
2022-10-26T14:02:18.564Z,4.37
2022-10-26T14:04:48.517Z,7.20
2022-10-26T14:07:23.209Z,5.43
2022-10-26T14:09:55.538Z,5.23
2022-10-26T14:12:29.010Z,4.97
2022-10-26T14:15:04.743Z,4.70
2022-10-26T14:17:34.523Z,5.57
2022-10-26T14:20:05.176Z,5.47
2022-10-26T14:22:35.899Z,5.00
2022-10-26T14:25:05.680Z,4.13
2022-10-26T14:27:40.844Z,4.57
2022-10-26T14:30:23.822Z,5.80
2022-10-26T14:32:53.933Z,7.63
2022-10-26T14:35:28.738Z,4.87
2022-10-26T14:38:00.925Z,5.13
2022-10-26T14:40:34.084Z,4.13
2022-10-26T14:43:07.125Z,6.23
2022-10-26T14:45:54.901Z,5.00
2022-10-26T14:48:26.966Z,7.13
2022-10-26T14:51:04.353Z,4.37
2022-10-26T14:53:39.136Z,5.30
2022-10-26T14:56:22.580Z,5.33
2022-10-26T14:58:53.258Z,5.37
2022-10-26T15:01:36.034Z,6.17
2022-10-26T15:04:08.457Z,4.47
2022-10-26T15:06:43.804Z,5.20
2022-10-26T15:09:33.050Z,5.70
2022-10-26T15:12:04.598Z,5.13
2022-10-26T15:14:36.214Z,11.90
2022-10-26T15:17:05.967Z,4.70
2022-10-26T15:19:41.422Z,5.40
2022-10-26T15:22:22.077Z,5.17
2022-10-26T15:24:53.649Z,5.40
2022-10-26T15:27:24.698Z,4.87
2022-10-26T15:30:13.530Z,6.37
2022-10-26T15:32:42.855Z,6.60
2022-10-26T15:35:35.835Z,4.60
2022-10-26T15:38:05.371Z,4.23
2022-10-26T15:40:37.054Z,8.30
2022-10-26T15:43:06.400Z,6.10
2022-10-26T15:45:39.382Z,4.50
2022-10-26T15:48:24.272Z,4.80
2022-10-26T15:50:54.164Z,4.93
2022-10-26T15:53:27.726Z,5.87
2022-10-26T15:55:59.495Z,5.17
2022-10-26T15:58:34.032Z,4.00
2022-10-26T16:01:04.864Z,9.20
2022-10-26T16:03:35.018Z,7.70
2022-10-26T16:06:05.494Z,4.87
2022-10-26T16:08:34.817Z,4.73
2022-10-26T16:11:05.232Z,8.40
2022-10-26T16:13:34.440Z,6.67
2022-10-26T16:16:05.638Z,6.70
2022-10-26T16:18:35.146Z,6.97
2022-10-26T16:21:04.611Z,9.90
2022-10-26T16:23:34.489Z,10.50
2022-10-26T16:26:05.892Z,8.43
2022-10-26T16:28:37.170Z,9.50
2022-10-26T16:31:09.496Z,6.73
2022-10-26T16:33:39.280Z,7.70
2022-10-26T16:36:09.918Z,8.47
2022-10-26T16:38:40.061Z,11.40
2022-10-26T16:41:11.456Z,8.47
2022-10-26T16:43:42.023Z,12.23
2022-10-26T16:46:15.280Z,10.93
2022-10-26T16:48:46.463Z,9.97
2022-10-26T16:51:17.389Z,11.93
2022-10-26T16:53:49.054Z,8.93
2022-10-26T16:56:20.012Z,8.23
2022-10-26T16:58:50.054Z,8.60
2022-10-26T17:01:21.903Z,8.73
2022-10-26T17:03:53.073Z,10.57
2022-10-26T17:06:23.207Z,7.93
2022-10-26T17:08:52.956Z,10.83
2022-10-26T17:11:23.305Z,7.97
2022-10-26T17:14:03.652Z,8.03
2022-10-26T17:16:35.762Z,11.77
2022-10-26T17:19:23.382Z,10.07
2022-10-26T17:21:52.693Z,10.47
2022-10-26T17:24:21.973Z,9.90
2022-10-26T17:26:51.295Z,10.13
2022-10-26T17:30:24.976Z,11.67
2022-10-26T17:32:56.053Z,11.77
2022-10-26T17:35:25.543Z,10.40
2022-10-26T17:37:55.127Z,11.70
2022-10-26T17:40:24.538Z,12.20
2022-10-26T17:42:55.946Z,12.03
2022-10-26T17:45:25.216Z,15.70
2022-10-26T17:47:56.006Z,12.23
2022-10-26T17:50:25.411Z,12.63
2022-10-26T17:52:55.993Z,13.20
2022-10-26T17:55:29.540Z,15.10
2022-10-26T17:57:58.904Z,14.20
2022-10-26T18:00:28.470Z,15.20
2022-10-26T18:05:36.773Z,15.60
2022-10-26T18:08:06.608Z,19.17
2022-10-26T18:10:38.372Z,15.40
2022-10-26T18:13:09.089Z,15.37
2022-10-26T18:15:38.493Z,13.90
2022-10-26T18:18:09.284Z,14.57
2022-10-26T18:20:38.580Z,15.50
2022-10-26T18:23:09.537Z,16.17
2022-10-26T18:25:39.333Z,15.27
2022-10-26T18:28:08.594Z,15.80
2022-10-26T18:30:37.930Z,15.37
2022-10-26T18:33:08.879Z,13.83
2022-10-26T18:35:38.435Z,13.67
2022-10-26T18:38:07.720Z,16.90
2022-10-26T18:40:36.987Z,25.17
2022-10-26T18:43:06.675Z,27.40
2022-10-26T18:45:36.365Z,29.50
2022-10-26T18:48:05.958Z,24.53
2022-10-26T18:50:39.277Z,24.47
2022-10-26T18:53:12.706Z,22.60
2022-10-26T18:55:42.702Z,21.10
2022-10-26T18:58:14.160Z,20.90
2022-10-26T19:00:44.542Z,22.77
2022-10-26T19:03:14.143Z,21.57
2022-10-26T19:05:44.919Z,20.90
2022-10-26T19:08:14.016Z,19.77
2022-10-26T19:10:43.465Z,20.67
2022-10-26T19:13:12.838Z,19.47
2022-10-26T19:15:42.155Z,18.93
2022-10-26T19:18:11.911Z,17.30
2022-10-26T19:20:42.762Z,15.70
2022-10-26T19:23:16.268Z,17.03
2022-10-26T19:25:45.632Z,16.87
2022-10-26T19:28:17.418Z,14.73
2022-10-26T19:30:49.134Z,13.33
2022-10-26T19:33:18.542Z,13.80
2022-10-26T19:35:48.332Z,14.70
2022-10-26T19:38:19.550Z,11.83
2022-10-26T19:40:50.733Z,13.47
2022-10-26T19:43:21.743Z,12.30
2022-10-26T19:45:51.234Z,14.70
2022-10-26T19:48:21.121Z,12.07
2022-10-26T19:50:51.732Z,10.40
2022-10-26T19:53:23.771Z,12.07
2022-10-26T19:55:57.423Z,10.30
2022-10-26T19:58:27.953Z,12.07
2022-10-26T20:00:58.623Z,13.40
2022-10-26T20:03:29.149Z,14.50
2022-10-26T20:05:59.290Z,16.27
2022-10-26T20:08:30.550Z,17.50
2022-10-26T20:10:59.919Z,17.23
2022-10-26T20:13:29.222Z,21.03
2022-10-26T20:15:58.936Z,17.30
2022-10-26T20:18:28.432Z,16.67
2022-10-26T20:20:57.795Z,16.63
2022-10-26T20:23:27.203Z,14.17
2022-10-26T20:26:01.819Z,16.63
2022-10-26T20:28:32.851Z,17.40
2022-10-26T20:31:04.938Z,16.77
2022-10-26T20:33:34.878Z,16.50
2022-10-26T20:36:04.798Z,18.77
2022-10-26T20:38:34.829Z,16.40
2022-10-26T20:41:09.382Z,14.83
2022-10-26T20:43:41.186Z,16.87
2022-10-26T20:46:12.702Z,16.07
2022-10-26T20:48:42.543Z,18.90
2022-10-26T20:51:17.269Z,15.40
2022-10-26T20:53:53.188Z,15.17
2022-10-26T20:56:26.647Z,16.30
2022-10-26T20:58:57.806Z,15.00
2022-10-26T21:01:29.895Z,18.00
2022-10-26T21:04:00.789Z,19.00
2022-10-26T21:06:30.541Z,16.60
2022-10-26T21:08:59.963Z,14.93
2022-10-26T21:11:33.054Z,19.77
2022-10-26T21:14:03.370Z,17.53
2022-10-26T21:16:32.666Z,14.33
2022-10-26T21:19:04.956Z,15.77
2022-10-26T21:21:35.363Z,13.27
2022-10-26T21:24:05.961Z,11.00
2022-10-26T21:26:36.821Z,12.53
2022-10-26T21:29:06.164Z,10.60
2022-10-26T21:31:35.760Z,13.80
2022-10-26T21:34:05.051Z,9.77
2022-10-26T21:36:34.140Z,9.63
2022-10-26T21:39:03.471Z,10.07
2022-10-26T21:41:32.769Z,8.20
2022-10-26T21:44:09.655Z,9.40
2022-10-26T21:46:45.238Z,9.57
2022-10-26T21:49:14.814Z,9.93
2022-10-26T21:51:44.448Z,8.83
2022-10-26T21:54:14.206Z,9.80
2022-10-26T21:56:45.684Z,9.40
2022-10-26T21:59:17.867Z,10.00
2022-10-26T22:01:47.504Z,11.40
2022-10-26T22:04:16.841Z,9.63
2022-10-26T22:06:46.370Z,13.20
2022-10-26T22:09:15.631Z,12.50
2022-10-26T22:11:45.075Z,15.73
2022-10-26T22:14:17.168Z,11.30
2022-10-26T22:16:46.878Z,15.10
2022-10-26T22:19:16.126Z,13.60
2022-10-26T22:21:45.825Z,24.90
2022-10-26T22:24:15.383Z,15.80
2022-10-26T22:26:45.496Z,14.33
2022-10-26T22:29:16.598Z,12.37
2022-10-26T22:31:46.022Z,14.13
2022-10-26T22:34:17.293Z,17.20
2022-10-26T22:36:47.000Z,15.57
2022-10-26T22:39:17.879Z,13.90
2022-10-26T22:41:49.047Z,13.57
2022-10-26T22:44:19.955Z,12.50
2022-10-26T22:46:49.908Z,12.83
2022-10-26T22:49:19.343Z,14.47
2022-10-26T22:51:48.630Z,12.40
2022-10-26T22:54:18.076Z,13.60
2022-10-26T22:56:47.457Z,12.93
2022-10-26T22:59:18.381Z,11.93
2022-10-26T23:01:47.985Z,12.17
2022-10-26T23:04:17.679Z,10.73
2022-10-26T23:06:46.678Z,11.10
2022-10-26T23:09:16.296Z,10.77
2022-10-26T23:11:45.988Z,10.17
2022-10-26T23:14:15.570Z,10.90
2022-10-26T23:16:46.428Z,11.33
2022-10-26T23:19:16.237Z,12.90
2022-10-26T23:21:45.631Z,11.70
2022-10-26T23:24:15.521Z,10.53
2022-10-26T23:26:44.992Z,9.80
2022-10-26T23:29:14.361Z,8.13
2022-10-26T23:31:45.310Z,9.40
2022-10-26T23:34:14.687Z,9.10
2022-10-26T23:36:44.105Z,9.90
2022-10-26T23:39:13.357Z,8.77
2022-10-26T23:41:42.673Z,11.20
2022-10-26T23:44:11.991Z,11.13
2022-10-26T23:46:41.295Z,9.87
2022-10-26T23:49:12.212Z,9.00
2022-10-26T23:51:41.480Z,8.87
2022-10-26T23:54:10.874Z,8.47
2022-10-26T23:56:40.436Z,12.37
2022-10-26T23:59:10.033Z,7.73
